Time;durP1;ratioP1;P1;durP2;ratioP2;P2;SDS_P1;SDS_P2;PMS_P1;PMS_P2;Temp;Humidity;BMP_temperature;BMP_pressure;BME280_temperature;BME280_humidity;BME280_pressure;Samples;Min_cycle;Max_cycle;Signal;HPM_P1;HPM_P2
2022/08/06 00:00:35;;;;;;;2.33;1.67;;;;;;;;;;5116572;28;20212;-59
2022/08/06 00:03:22;;;;;;;3.00;1.70;;;;;;;;;;5114549;28;20261;-58
2022/08/06 00:06:09;;;;;;;2.70;1.77;;;;;;;;;;5117365;27;20257;-58
2022/08/06 00:08:56;;;;;;;1.77;1.67;;;;;;;;;;5123194;27;20288;-58
2022/08/06 00:11:42;;;;;;;1.90;1.70;;;;;;;;;;5115112;28;20328;-58
2022/08/06 00:14:32;;;;;;;2.07;1.57;;;;;;;;;;5121206;28;20214;-59
2022/08/06 00:17:20;;;;;;;2.10;1.37;;;;;;;;;;5119840;28;20211;-58
2022/08/06 00:20:08;;;;;;;1.93;1.53;;;;;;;;;;5119954;28;20215;-58
2022/08/06 00:22:55;;;;;;;2.23;1.57;;;;;;;;;;5119760;27;20281;-58
2022/08/06 00:25:42;;;;;;;1.43;1.13;;;;;;;;;;5124835;27;20295;-58
2022/08/06 00:28:29;;;;;;;1.40;1.30;;;;;;;;;;5122715;27;20223;-58
2022/08/06 00:31:17;;;;;;;2.37;1.53;;;;;;;;;;5116968;27;20648;-58
2022/08/06 00:34:05;;;;;;;3.10;1.47;;;;;;;;;;5122152;27;20742;-58
2022/08/06 00:36:52;;;;;;;1.97;1.50;;;;;;;;;;5119542;27;20286;-59
2022/08/06 00:39:39;;;;;;;1.97;1.43;;;;;;;;;;5121288;27;20690;-58
2022/08/06 00:42:27;;;;;;;2.00;1.50;;;;;;;;;;5121892;27;20215;-58
2022/08/06 00:45:14;;;;;;;2.60;1.23;;;;;;;;;;5124043;27;20257;-59
2022/08/06 00:48:03;;;;;;;1.50;1.30;;;;;;;;;;5123163;27;20730;-58
2022/08/06 00:50:50;;;;;;;1.47;1.13;;;;;;;;;;5118026;27;20207;-58
2022/08/06 00:53:37;;;;;;;2.10;1.40;;;;;;;;;;5116506;27;20207;-58
2022/08/06 00:56:24;;;;;;;1.37;1.13;;;;;;;;;;5125444;27;20294;-58
2022/08/06 00:59:11;;;;;;;1.20;1.10;;;;;;;;;;5119089;27;20642;-58
2022/08/06 01:01:58;;;;;;;1.77;1.23;;;;;;;;;;5123569;27;20207;-58
2022/08/06 01:04:46;;;;;;;1.30;1.03;;;;;;;;;;5124154;27;20222;-58
2022/08/06 01:07:33;;;;;;;1.40;1.30;;;;;;;;;;5124833;27;20213;-59
2022/08/06 01:10:21;;;;;;;1.80;1.27;;;;;;;;;;5127306;27;20602;-58
2022/08/06 01:13:09;;;;;;;2.73;1.30;;;;;;;;;;5124486;27;20405;-59
2022/08/06 01:16:06;;;;;;;1.43;1.33;;;;;;;;;;5117082;27;20238;-58
2022/08/06 01:19:02;;;;;;;1.50;1.10;;;;;;;;;;5129343;27;20663;-58
2022/08/06 01:22:06;;;;;;;2.07;1.10;;;;;;;;;;5120849;27;20260;-58
2022/08/06 01:25:08;;;;;;;1.93;1.10;;;;;;;;;;5123776;27;20666;-59
2022/08/06 01:28:00;;;;;;;1.77;1.10;;;;;;;;;;5118897;27;20204;-58
2022/08/06 01:30:51;;;;;;;1.70;1.00;;;;;;;;;;5115956;27;20207;-58
2022/08/06 01:33:44;;;;;;;2.33;1.10;;;;;;;;;;5120352;27;20210;-58
2022/08/06 01:36:35;;;;;;;1.80;1.07;;;;;;;;;;5118497;27;20238;-58
2022/08/06 01:39:23;;;;;;;1.27;1.00;;;;;;;;;;5122512;27;20278;-58
2022/08/06 01:42:12;;;;;;;1.47;1.03;;;;;;;;;;5117624;27;20308;-58
2022/08/06 01:45:02;;;;;;;2.03;1.37;;;;;;;;;;5115437;27;20864;-57
2022/08/06 01:47:53;;;;;;;1.40;1.23;;;;;;;;;;5122683;27;20221;-58
2022/08/06 01:50:45;;;;;;;1.03;0.90;;;;;;;;;;5116109;27;20318;-58
2022/08/06 01:53:36;;;;;;;1.43;0.93;;;;;;;;;;5118522;27;20210;-58
2022/08/06 01:56:24;;;;;;;1.63;1.20;;;;;;;;;;5116540;27;20206;-58
2022/08/06 01:59:15;;;;;;;1.10;1.00;;;;;;;;;;5119929;27;20612;-58
2022/08/06 02:02:06;;;;;;;1.47;0.90;;;;;;;;;;5113793;27;20200;-59
2022/08/06 02:04:56;;;;;;;1.83;1.00;;;;;;;;;;5118716;27;20567;-58
2022/08/06 02:07:47;;;;;;;1.27;0.80;;;;;;;;;;5116559;27;20232;-58
2022/08/06 02:10:36;;;;;;;1.10;0.90;;;;;;;;;;5121613;27;20691;-58
2022/08/06 02:13:25;;;;;;;1.50;1.10;;;;;;;;;;5124372;27;20699;-58
2022/08/06 02:16:14;;;;;;;1.00;0.90;;;;;;;;;;5121222;27;20213;-59
2022/08/06 02:19:04;;;;;;;1.03;1.03;;;;;;;;;;5114000;27;20288;-58
2022/08/06 02:21:53;;;;;;;1.27;1.00;;;;;;;;;;5117185;27;20239;-58
2022/08/06 02:24:41;;;;;;;1.00;0.80;;;;;;;;;;5125712;27;20279;-58
2022/08/06 02:27:29;;;;;;;0.97;0.80;;;;;;;;;;5121101;27;20239;-58
2022/08/06 02:30:16;;;;;;;0.87;0.80;;;;;;;;;;5122903;27;20709;-58
2022/08/06 02:33:04;;;;;;;1.33;0.90;;;;;;;;;;5119669;27;20207;-58
2022/08/06 02:35:58;;;;;;;1.13;1.07;;;;;;;;;;5116743;27;20195;-58
2022/08/06 02:38:51;;;;;;;1.53;0.90;;;;;;;;;;5118579;27;20677;-58
2022/08/06 02:41:42;;;;;;;1.00;0.90;;;;;;;;;;5115760;27;20205;-58
2022/08/06 02:44:39;;;;;;;1.63;0.97;;;;;;;;;;5116718;27;20206;-58
2022/08/06 02:47:32;;;;;;;1.20;0.80;;;;;;;;;;5117470;27;20226;-58
2022/08/06 02:50:22;;;;;;;2.97;1.20;;;;;;;;;;5116761;27;20210;-58
2022/08/06 02:53:14;;;;;;;0.63;0.60;;;;;;;;;;5117171;27;20217;-59
2022/08/06 02:56:07;;;;;;;0.53;0.50;;;;;;;;;;5114536;27;20601;-58
2022/08/06 02:58:56;;;;;;;1.63;0.93;;;;;;;;;;5117546;27;20212;-58
2022/08/06 03:01:53;;;;;;;1.73;0.97;;;;;;;;;;5114956;27;20203;-58
2022/08/06 03:04:44;;;;;;;1.10;1.00;;;;;;;;;;5118460;27;20211;-58
2022/08/06 03:07:34;;;;;;;0.80;0.80;;;;;;;;;;5114084;27;20226;-59
2022/08/06 03:10:25;;;;;;;1.17;0.73;;;;;;;;;;5116506;27;20235;-58
2022/08/06 03:13:13;;;;;;;1.07;0.77;;;;;;;;;;5118086;27;20613;-57
2022/08/06 03:16:02;;;;;;;1.00;0.73;;;;;;;;;;5117061;27;20204;-59
2022/08/06 03:18:49;;;;;;;1.43;0.90;;;;;;;;;;5116088;27;20215;-58
2022/08/06 03:21:36;;;;;;;1.60;0.80;;;;;;;;;;5116586;27;20235;-58
2022/08/06 03:24:25;;;;;;;1.27;0.73;;;;;;;;;;5116199;27;20741;-58
2022/08/06 03:27:16;;;;;;;1.07;0.60;;;;;;;;;;5120296;27;20230;-57
2022/08/06 03:30:04;;;;;;;0.47;0.37;;;;;;;;;;5117213;27;20694;-59
2022/08/06 03:32:52;;;;;;;0.60;0.50;;;;;;;;;;5117579;27;20670;-58
2022/08/06 03:35:39;;;;;;;0.63;0.63;;;;;;;;;;5117877;27;20208;-59
2022/08/06 03:38:28;;;;;;;1.27;0.97;;;;;;;;;;5116525;27;20203;-58
2022/08/06 03:41:17;;;;;;;2.20;0.80;;;;;;;;;;5120196;28;20203;-58
2022/08/06 03:44:06;;;;;;;0.97;0.77;;;;;;;;;;5121143;27;20198;-59
2022/08/06 03:46:58;;;;;;;0.93;0.60;;;;;;;;;;5116630;27;20564;-58
2022/08/06 03:49:51;;;;;;;0.80;0.80;;;;;;;;;;5121480;27;20210;-58
2022/08/06 03:52:40;;;;;;;0.70;0.60;;;;;;;;;;5115690;27;20266;-58
2022/08/06 03:55:31;;;;;;;1.80;0.77;;;;;;;;;;5113678;28;20203;-58
2022/08/06 03:58:20;;;;;;;0.73;0.60;;;;;;;;;;5113978;28;20266;-58
2022/08/06 04:01:11;;;;;;;0.70;0.67;;;;;;;;;;5117683;28;20224;-58
2022/08/06 04:03:59;;;;;;;0.50;0.50;;;;;;;;;;5115695;27;20671;-58
2022/08/06 04:06:47;;;;;;;0.90;0.57;;;;;;;;;;5115859;28;20708;-59
2022/08/06 04:09:34;;;;;;;0.87;0.70;;;;;;;;;;5118636;28;20678;-58
2022/08/06 04:12:22;;;;;;;0.97;0.60;;;;;;;;;;5112600;28;20227;-58
2022/08/06 04:15:11;;;;;;;1.07;0.83;;;;;;;;;;5115638;28;20235;-58
2022/08/06 04:18:00;;;;;;;1.13;0.70;;;;;;;;;;5121396;27;20202;-59
2022/08/06 04:20:49;;;;;;;1.77;0.80;;;;;;;;;;5117070;28;20209;-58
2022/08/06 04:23:38;;;;;;;0.67;0.60;;;;;;;;;;5114726;28;20575;-58
2022/08/06 04:26:28;;;;;;;0.70;0.70;;;;;;;;;;5117213;28;20727;-59
2022/08/06 04:29:18;;;;;;;0.60;0.60;;;;;;;;;;5121856;28;20201;-58
2022/08/06 04:32:08;;;;;;;0.83;0.50;;;;;;;;;;5118629;28;20206;-58
2022/08/06 04:34:57;;;;;;;0.47;0.47;;;;;;;;;;5111683;28;20203;-58
2022/08/06 04:37:44;;;;;;;1.17;0.63;;;;;;;;;;5116720;27;20677;-58
2022/08/06 04:40:32;;;;;;;1.03;0.70;;;;;;;;;;5113481;27;20575;-58
2022/08/06 04:43:20;;;;;;;0.73;0.40;;;;;;;;;;5120134;27;20205;-58
2022/08/06 04:46:07;;;;;;;0.97;0.50;;;;;;;;;;5115846;28;20221;-58
2022/08/06 04:48:54;;;;;;;1.10;0.60;;;;;;;;;;5117480;27;20561;-58
2022/08/06 04:51:46;;;;;;;0.50;0.50;;;;;;;;;;5114754;28;20218;-58
2022/08/06 04:54:33;;;;;;;1.00;0.60;;;;;;;;;;5118311;28;20211;-58
2022/08/06 04:57:20;;;;;;;1.77;0.80;;;;;;;;;;5114741;28;20210;-58
2022/08/06 05:00:08;;;;;;;0.90;0.90;;;;;;;;;;5119571;28;20216;-58
2022/08/06 05:02:55;;;;;;;0.70;0.70;;;;;;;;;;5115641;28;20233;-58
2022/08/06 05:05:47;;;;;;;0.97;0.80;;;;;;;;;;5115738;28;20571;-58
2022/08/06 05:08:38;;;;;;;0.73;0.60;;;;;;;;;;5118224;27;20570;-58
2022/08/06 05:11:31;;;;;;;0.57;0.57;;;;;;;;;;5119902;27;20697;-58
2022/08/06 05:14:24;;;;;;;0.60;0.50;;;;;;;;;;5123165;27;20207;-58
2022/08/06 05:17:15;;;;;;;1.60;0.77;;;;;;;;;;5124914;27;20199;-58
2022/08/06 05:20:10;;;;;;;1.30;0.80;;;;;;;;;;5117032;27;20581;-58
2022/08/06 05:23:01;;;;;;;0.53;0.53;;;;;;;;;;5116172;27;20212;-58
2022/08/06 05:25:50;;;;;;;0.80;0.70;;;;;;;;;;5120178;27;20246;-59
2022/08/06 05:28:39;;;;;;;0.93;0.80;;;;;;;;;;5121108;27;20203;-57
2022/08/06 05:31:31;;;;;;;1.87;0.73;;;;;;;;;;5115291;27;20202;-58
2022/08/06 05:34:18;;;;;;;0.97;0.53;;;;;;;;;;5116724;27;20284;-59
2022/08/06 05:37:05;;;;;;;0.70;0.47;;;;;;;;;;5122653;27;20195;-58
2022/08/06 05:39:52;;;;;;;0.80;0.50;;;;;;;;;;5114207;27;20312;-58
2022/08/06 05:42:40;;;;;;;1.47;0.80;;;;;;;;;;5119230;27;20209;-58
2022/08/06 05:45:27;;;;;;;1.87;0.53;;;;;;;;;;5117871;27;20213;-58
2022/08/06 05:48:16;;;;;;;0.60;0.50;;;;;;;;;;5119601;27;20219;-59
2022/08/06 05:51:07;;;;;;;0.50;0.50;;;;;;;;;;5116116;27;20204;-58
2022/08/06 05:54:00;;;;;;;1.20;0.57;;;;;;;;;;5119326;27;20227;-58
2022/08/06 05:56:49;;;;;;;1.37;0.70;;;;;;;;;;5122750;27;20608;-58
2022/08/06 05:59:42;;;;;;;0.73;0.50;;;;;;;;;;5122219;27;20276;-58
2022/08/06 06:02:30;;;;;;;1.13;0.50;;;;;;;;;;5121525;27;20750;-58
2022/08/06 06:05:18;;;;;;;0.90;0.60;;;;;;;;;;5121366;27;20229;-58
2022/08/06 06:08:06;;;;;;;1.50;0.67;;;;;;;;;;5120569;27;20711;-58
2022/08/06 06:10:53;;;;;;;1.23;0.60;;;;;;;;;;5121972;27;20253;-58
2022/08/06 06:13:42;;;;;;;1.10;0.70;;;;;;;;;;5115718;27;20282;-58
2022/08/06 06:16:45;;;;;;;1.10;0.60;;;;;;;;;;5115780;27;20294;-58
2022/08/06 06:19:38;;;;;;;1.90;0.77;;;;;;;;;;5118099;27;20202;-58
2022/08/06 06:22:34;;;;;;;0.52;0.52;;;;;;;;;;5120225;27;20308;-58
2022/08/06 06:25:26;;;;;;;1.30;0.65;;;;;;;;;;5118532;27;20214;-58
2022/08/06 06:28:22;;;;;;;1.17;0.50;;;;;;;;;;5103316;28;20593;-58
2022/08/06 06:31:27;;;;;;;1.17;0.40;;;;;;;;;;5096115;28;20211;-58
2022/08/06 06:34:21;;;;;;;0.40;0.40;;;;;;;;;;5093235;28;20220;-58
2022/08/06 06:37:18;;;;;;;1.48;0.40;;;;;;;;;;5100299;28;20720;-58
2022/08/06 06:40:19;;;;;;;1.00;0.50;;;;;;;;;;5096339;28;20209;-59
2022/08/06 06:43:12;;;;;;;0.65;0.50;;;;;;;;;;5101162;28;20212;-58
2022/08/06 06:46:05;;;;;;;1.02;0.50;;;;;;;;;;5093113;28;20209;-58
2022/08/06 06:48:57;;;;;;;1.63;0.60;;;;;;;;;;5098233;28;20834;-58
2022/08/06 06:51:49;;;;;;;0.38;0.30;;;;;;;;;;5093234;28;20209;-58
2022/08/06 06:54:42;;;;;;;0.77;0.50;;;;;;;;;;5101828;28;20255;-58
2022/08/06 06:57:32;;;;;;;0.63;0.50;;;;;;;;;;5100047;28;20205;-58
2022/08/06 07:00:20;;;;;;;0.98;0.60;;;;;;;;;;5100124;28;20229;-57
2022/08/06 07:03:09;;;;;;;0.75;0.68;;;;;;;;;;5096479;28;20225;-58
2022/08/06 07:05:57;;;;;;;0.73;0.60;;;;;;;;;;5095771;28;20222;-58
2022/08/06 07:08:48;;;;;;;0.35;0.35;;;;;;;;;;5097432;28;20587;-59
2022/08/06 07:11:36;;;;;;;0.52;0.47;;;;;;;;;;5100191;28;20622;-58
2022/08/06 07:14:25;;;;;;;1.23;0.63;;;;;;;;;;5095231;28;20203;-58
2022/08/06 07:17:13;;;;;;;0.65;0.40;;;;;;;;;;5100446;28;20202;-59
2022/08/06 07:20:03;;;;;;;0.65;0.60;;;;;;;;;;5097353;28;20259;-59
2022/08/06 07:22:51;;;;;;;0.80;0.60;;;;;;;;;;5097269;28;20654;-58
2022/08/06 07:25:42;;;;;;;0.98;0.50;;;;;;;;;;5100188;27;20237;-59
2022/08/06 07:28:30;;;;;;;0.93;0.45;;;;;;;;;;5098738;28;20732;-59
2022/08/06 07:31:20;;;;;;;0.70;0.45;;;;;;;;;;5096589;28;20201;-57
2022/08/06 07:34:07;;;;;;;0.40;0.40;;;;;;;;;;5098441;28;20608;-56
2022/08/06 07:36:56;;;;;;;0.93;0.60;;;;;;;;;;5096881;28;20347;-59
2022/08/06 07:39:45;;;;;;;0.68;0.68;;;;;;;;;;5097151;28;20221;-58
2022/08/06 07:42:35;;;;;;;0.52;0.52;;;;;;;;;;5096190;28;20300;-57
2022/08/06 07:45:25;;;;;;;1.38;0.30;;;;;;;;;;5096198;28;20233;-57
2022/08/06 07:48:14;;;;;;;1.23;0.70;;;;;;;;;;5096210;28;20230;-58
2022/08/06 07:51:03;;;;;;;0.50;0.40;;;;;;;;;;5093802;28;20789;-58
2022/08/06 07:53:51;;;;;;;0.77;0.63;;;;;;;;;;5101540;28;20209;-58
2022/08/06 07:56:42;;;;;;;0.82;0.50;;;;;;;;;;5101741;28;20678;-56
2022/08/06 07:59:31;;;;;;;0.52;0.52;;;;;;;;;;5087229;28;20666;-56
2022/08/06 08:02:19;;;;;;;1.80;1.13;;;;;;;;;;5094575;28;20234;-57
2022/08/06 08:08:12;;;;;;;1.65;1.33;;;;;;;;;;5099126;28;20217;-57
2022/08/06 08:11:01;;;;;;;2.72;1.80;;;;;;;;;;5099706;28;20289;-56
2022/08/06 08:13:48;;;;;;;1.65;1.55;;;;;;;;;;5099883;28;20676;-57
2022/08/06 08:16:37;;;;;;;2.00;1.73;;;;;;;;;;5099474;28;20213;-56
2022/08/06 08:19:30;;;;;;;1.40;1.30;;;;;;;;;;5097188;28;20209;-58
2022/08/06 08:22:20;;;;;;;1.52;1.42;;;;;;;;;;5091403;28;20283;-57
2022/08/06 08:25:08;;;;;;;1.67;1.52;;;;;;;;;;5091853;28;20206;-57
2022/08/06 08:27:55;;;;;;;1.60;1.42;;;;;;;;;;5119011;27;20736;-57
2022/08/06 08:30:43;;;;;;;2.20;1.77;;;;;;;;;;5108626;28;20258;-57
2022/08/06 08:33:32;;;;;;;2.00;1.40;;;;;;;;;;5117455;28;20269;-57
2022/08/06 08:36:20;;;;;;;1.40;1.30;;;;;;;;;;5117804;28;20216;-57
2022/08/06 08:39:08;;;;;;;1.95;1.40;;;;;;;;;;5113352;28;20616;-57
2022/08/06 08:42:06;;;;;;;1.73;1.10;;;;;;;;;;5112468;28;20664;-57
2022/08/06 08:44:57;;;;;;;1.90;1.15;;;;;;;;;;5114275;27;20201;-58
2022/08/06 08:47:47;;;;;;;1.40;1.30;;;;;;;;;;5126044;27;20225;-57
2022/08/06 08:50:36;;;;;;;1.50;1.25;;;;;;;;;;5111608;27;20205;-57
2022/08/06 08:53:32;;;;;;;2.28;1.30;;;;;;;;;;5120507;27;20695;-57
2022/08/06 08:56:19;;;;;;;1.77;0.95;;;;;;;;;;5118009;27;20580;-57
2022/08/06 08:59:06;;;;;;;2.85;1.25;;;;;;;;;;5125832;27;20691;-57
2022/08/06 09:01:53;;;;;;;2.03;1.00;;;;;;;;;;5117746;27;20245;-56
2022/08/06 09:04:41;;;;;;;1.80;1.13;;;;;;;;;;5118094;27;20288;-57
2022/08/06 09:07:31;;;;;;;1.52;1.10;;;;;;;;;;5121525;27;20315;-57
2022/08/06 09:10:18;;;;;;;1.23;1.00;;;;;;;;;;5122592;27;20206;-58
2022/08/06 09:13:05;;;;;;;1.63;1.20;;;;;;;;;;5119271;27;20214;-57
2022/08/06 09:15:52;;;;;;;1.92;1.27;;;;;;;;;;5119766;27;20212;-56
2022/08/06 09:18:40;;;;;;;1.25;1.00;;;;;;;;;;5120157;27;20229;-57
2022/08/06 09:21:27;;;;;;;2.35;1.33;;;;;;;;;;5117812;27;20206;-57
2022/08/06 09:24:16;;;;;;;1.80;1.50;;;;;;;;;;5120890;27;20215;-56
2022/08/06 09:27:05;;;;;;;1.63;1.08;;;;;;;;;;5124995;27;20225;-57
2022/08/06 09:29:54;;;;;;;1.48;1.25;;;;;;;;;;5118880;27;20273;-57
2022/08/06 09:32:43;;;;;;;2.08;0.90;;;;;;;;;;5116860;27;20204;-57
2022/08/06 09:35:30;;;;;;;2.95;1.30;;;;;;;;;;5120715;27;20355;-57
2022/08/06 09:38:17;;;;;;;1.40;1.20;;;;;;;;;;5118983;27;20209;-57
2022/08/06 09:41:08;;;;;;;2.25;1.10;;;;;;;;;;5121512;27;20201;-57
2022/08/06 09:43:56;;;;;;;1.20;1.05;;;;;;;;;;5118151;27;20213;-57
2022/08/06 09:46:45;;;;;;;1.63;0.98;;;;;;;;;;5118912;27;20227;-57
2022/08/06 09:49:44;;;;;;;1.30;1.08;;;;;;;;;;5126265;27;20225;-56
2022/08/06 09:52:31;;;;;;;1.15;1.05;;;;;;;;;;5122101;27;20209;-57
2022/08/06 09:55:29;;;;;;;1.63;1.00;;;;;;;;;;5122966;27;20679;-58
2022/08/06 09:58:29;;;;;;;2.13;0.95;;;;;;;;;;5121431;27;20280;-57
2022/08/06 10:01:18;;;;;;;1.10;1.00;;;;;;;;;;5117335;27;20661;-57
2022/08/06 10:04:05;;;;;;;2.13;1.00;;;;;;;;;;5119381;27;20224;-57
2022/08/06 10:06:53;;;;;;;1.30;0.77;;;;;;;;;;5117481;27;20602;-57
2022/08/06 10:09:52;;;;;;;1.10;0.80;;;;;;;;;;5110696;27;20316;-57
2022/08/06 10:12:39;;;;;;;1.83;1.08;;;;;;;;;;5116916;27;20657;-57
2022/08/06 10:15:30;;;;;;;0.73;0.70;;;;;;;;;;5115035;27;20202;-57
2022/08/06 10:18:31;;;;;;;1.15;0.80;;;;;;;;;;5119936;27;20326;-57
2022/08/06 10:21:22;;;;;;;2.85;0.80;;;;;;;;;;5121984;27;20390;-58
2022/08/06 10:24:11;;;;;;;1.27;0.80;;;;;;;;;;5118174;27;20281;-58
2022/08/06 10:26:58;;;;;;;0.65;0.65;;;;;;;;;;5124095;27;20655;-57
2022/08/06 10:29:50;;;;;;;0.75;0.75;;;;;;;;;;5121958;27;20719;-57
2022/08/06 10:32:45;;;;;;;1.10;1.00;;;;;;;;;;5116620;27;20205;-57
2022/08/06 10:35:32;;;;;;;1.73;0.82;;;;;;;;;;5119140;27;20255;-57
2022/08/06 10:38:23;;;;;;;1.95;1.20;;;;;;;;;;5116779;27;20246;-57
2022/08/06 10:41:12;;;;;;;1.17;0.88;;;;;;;;;;5120396;27;20208;-58
2022/08/06 10:44:00;;;;;;;1.70;0.98;;;;;;;;;;5117948;27;20286;-57
2022/08/06 10:46:47;;;;;;;0.70;0.70;;;;;;;;;;5118899;27;20209;-57
2022/08/06 10:49:36;;;;;;;0.95;0.77;;;;;;;;;;5119638;27;20309;-57
2022/08/06 10:52:24;;;;;;;1.27;0.60;;;;;;;;;;5119687;27;20699;-57
2022/08/06 10:55:11;;;;;;;0.63;0.63;;;;;;;;;;5115663;27;20606;-57
2022/08/06 10:57:59;;;;;;;1.10;1.00;;;;;;;;;;5118928;27;20198;-58
2022/08/06 11:00:46;;;;;;;0.63;0.60;;;;;;;;;;5114587;27;20220;-58
2022/08/06 11:03:42;;;;;;;0.60;0.60;;;;;;;;;;5116340;27;20209;-57
2022/08/06 11:07:02;;;;;;;1.08;0.63;;;;;;;;;;5115478;27;20225;-57
2022/08/06 11:10:03;;;;;;;0.45;0.45;;;;;;;;;;5091404;27;20224;-57
2022/08/06 11:12:54;;;;;;;1.02;0.55;;;;;;;;;;5119143;27;20201;-58
2022/08/06 11:15:42;;;;;;;1.08;0.63;;;;;;;;;;5113899;27;20235;-57
2022/08/06 11:18:29;;;;;;;1.00;0.88;;;;;;;;;;5110450;27;20197;-57
2022/08/06 11:21:38;;;;;;;0.80;0.45;;;;;;;;;;5116958;27;20215;-57
2022/08/06 11:24:25;;;;;;;0.63;0.57;;;;;;;;;;5117783;27;20201;-57
2022/08/06 11:27:45;;;;;;;0.98;0.65;;;;;;;;;;5122335;27;20244;-57
2022/08/06 11:30:43;;;;;;;0.90;0.50;;;;;;;;;;5110546;27;20725;-58
2022/08/06 11:34:01;;;;;;;1.15;0.70;;;;;;;;;;5108242;27;20206;-58
2022/08/06 11:36:54;;;;;;;0.88;0.75;;;;;;;;;;5110131;27;20632;-58
2022/08/06 11:40:06;;;;;;;0.52;0.50;;;;;;;;;;5120980;27;20284;-57
2022/08/06 11:42:53;;;;;;;1.63;0.60;;;;;;;;;;5112776;27;20665;-57
2022/08/06 11:46:19;;;;;;;0.57;0.55;;;;;;;;;;5119364;27;20197;-57
2022/08/06 11:49:21;;;;;;;0.65;0.47;;;;;;;;;;5119334;27;20266;-58
2022/08/06 11:52:10;;;;;;;1.15;0.55;;;;;;;;;;5117974;27;20662;-57
2022/08/06 11:55:02;;;;;;;0.80;0.60;;;;;;;;;;5114368;27;20205;-56
2022/08/06 11:57:49;;;;;;;1.25;0.60;;;;;;;;;;5107627;28;20214;-58
2022/08/06 12:00:55;;;;;;;1.17;0.70;;;;;;;;;;5119031;28;20201;-58
2022/08/06 12:03:43;;;;;;;0.80;0.60;;;;;;;;;;5116962;28;20205;-57
2022/08/06 12:06:30;;;;;;;1.00;0.40;;;;;;;;;;5124092;28;20220;-57
2022/08/06 12:09:18;;;;;;;0.85;0.55;;;;;;;;;;5118154;27;20232;-58
2022/08/06 12:12:37;;;;;;;1.80;0.60;;;;;;;;;;5118482;28;20201;-57
2022/08/06 12:15:37;;;;;;;0.70;0.55;;;;;;;;;;5114959;28;20298;-57
2022/08/06 12:18:25;;;;;;;0.40;0.35;;;;;;;;;;5118594;27;20285;-56
2022/08/06 12:21:12;;;;;;;0.55;0.55;;;;;;;;;;5115046;27;20205;-57
2022/08/06 12:23:59;;;;;;;1.35;0.60;;;;;;;;;;5120620;27;20209;-58
2022/08/06 12:26:48;;;;;;;1.50;0.60;;;;;;;;;;5123705;27;20240;-57
2022/08/06 12:29:35;;;;;;;0.60;0.60;;;;;;;;;;5125044;27;20221;-57
2022/08/06 12:32:24;;;;;;;0.63;0.50;;;;;;;;;;5118264;27;20335;-57
2022/08/06 12:35:12;;;;;;;0.70;0.65;;;;;;;;;;5121325;27;20233;-57
2022/08/06 12:37:59;;;;;;;1.35;0.50;;;;;;;;;;5120703;27;20209;-57
2022/08/06 12:40:53;;;;;;;0.40;0.32;;;;;;;;;;5117750;27;20205;-57
2022/08/06 12:43:44;;;;;;;0.68;0.50;;;;;;;;;;5118551;27;20214;-58
2022/08/06 12:46:32;;;;;;;0.82;0.60;;;;;;;;;;5123951;27;20294;-57
2022/08/06 12:49:30;;;;;;;0.98;0.45;;;;;;;;;;5122007;27;20471;-57
2022/08/06 12:52:20;;;;;;;2.95;0.85;;;;;;;;;;5122367;27;20206;-57
2022/08/06 12:55:17;;;;;;;1.33;0.43;;;;;;;;;;5118699;27;20217;-58
2022/08/06 12:58:05;;;;;;;0.60;0.60;;;;;;;;;;5119740;27;20564;-57
2022/08/06 13:00:55;;;;;;;0.70;0.55;;;;;;;;;;5117002;27;20670;-57
2022/08/06 13:03:44;;;;;;;0.65;0.50;;;;;;;;;;5123365;27;20588;-57
2022/08/06 13:06:34;;;;;;;0.60;0.60;;;;;;;;;;5120927;27;20256;-57
2022/08/06 13:09:29;;;;;;;0.70;0.40;;;;;;;;;;5123020;27;20223;-57
2022/08/06 13:12:18;;;;;;;0.57;0.45;;;;;;;;;;5117465;27;20197;-57
2022/08/06 13:15:13;;;;;;;0.60;0.40;;;;;;;;;;5121361;27;20700;-57
2022/08/06 13:18:13;;;;;;;0.55;0.50;;;;;;;;;;5120054;27;20213;-58
2022/08/06 13:21:03;;;;;;;0.43;0.43;;;;;;;;;;5117368;27;20198;-57
2022/08/06 13:23:52;;;;;;;0.55;0.50;;;;;;;;;;5120393;27;20577;-59
2022/08/06 13:26:52;;;;;;;0.93;0.47;;;;;;;;;;5115508;27;20715;-57
2022/08/06 13:29:59;;;;;;;0.68;0.68;;;;;;;;;;5118918;27;20590;-58
2022/08/06 13:32:46;;;;;;;2.08;0.68;;;;;;;;;;5123780;27;20219;-58
2022/08/06 13:35:35;;;;;;;0.57;0.43;;;;;;;;;;5113060;27;20255;-58
2022/08/06 13:38:29;;;;;;;0.90;0.55;;;;;;;;;;5117405;27;20205;-58
2022/08/06 13:41:24;;;;;;;0.50;0.40;;;;;;;;;;5126225;27;20204;-58
2022/08/06 13:44:27;;;;;;;0.57;0.40;;;;;;;;;;5112926;27;20331;-58
2022/08/06 13:47:25;;;;;;;0.32;0.32;;;;;;;;;;5114331;27;20209;-58
2022/08/06 13:50:12;;;;;;;0.52;0.47;;;;;;;;;;5121865;27;20266;-58
2022/08/06 13:53:01;;;;;;;0.60;0.50;;;;;;;;;;5119437;27;20578;-58
2022/08/06 13:55:48;;;;;;;1.02;0.40;;;;;;;;;;5119143;27;20704;-58
2022/08/06 13:58:35;;;;;;;0.57;0.40;;;;;;;;;;5114960;27;20611;-58
2022/08/06 14:01:22;;;;;;;1.13;0.60;;;;;;;;;;5119315;27;20288;-58
2022/08/06 14:04:09;;;;;;;1.02;0.40;;;;;;;;;;5116306;27;20190;-58
2022/08/06 14:06:57;;;;;;;0.35;0.30;;;;;;;;;;5118651;27;20686;-58
2022/08/06 14:09:46;;;;;;;1.38;0.70;;;;;;;;;;5119223;27;20226;-58
2022/08/06 14:12:33;;;;;;;0.65;0.60;;;;;;;;;;5120521;27;20673;-58
2022/08/06 14:15:20;;;;;;;1.27;0.50;;;;;;;;;;5123292;27;20829;-57
2022/08/06 14:18:07;;;;;;;0.75;0.50;;;;;;;;;;5122388;27;20201;-58
2022/08/06 14:20:54;;;;;;;0.50;0.50;;;;;;;;;;5115474;27;20213;-58
2022/08/06 14:23:41;;;;;;;0.82;0.63;;;;;;;;;;5117365;27;20198;-58
2022/08/06 14:26:29;;;;;;;0.60;0.30;;;;;;;;;;5118666;27;20301;-58
2022/08/06 14:29:16;;;;;;;1.25;0.32;;;;;;;;;;5116994;27;20230;-58
2022/08/06 14:32:04;;;;;;;0.75;0.40;;;;;;;;;;5115250;27;20660;-58
2022/08/06 14:34:55;;;;;;;0.90;0.40;;;;;;;;;;5117620;27;20587;-58
2022/08/06 14:37:42;;;;;;;0.40;0.40;;;;;;;;;;5124087;27;20210;-57
2022/08/06 14:46:40;;;;;;;0.60;0.47;;;;;;;;;;5120381;27;20210;-58
2022/08/06 14:49:27;;;;;;;0.80;0.45;;;;;;;;;;5121040;27;20573;-58
2022/08/06 14:52:14;;;;;;;0.30;0.30;;;;;;;;;;5123087;27;21592;-57
2022/08/06 14:55:01;;;;;;;0.95;0.55;;;;;;;;;;5121004;27;20662;-58
2022/08/06 14:57:48;;;;;;;0.70;0.45;;;;;;;;;;5113271;27;20694;-57
2022/08/06 15:00:36;;;;;;;1.02;0.50;;;;;;;;;;5120505;27;20284;-58
2022/08/06 15:03:23;;;;;;;0.98;0.40;;;;;;;;;;5115691;27;20681;-58
2022/08/06 15:06:10;;;;;;;0.88;0.63;;;;;;;;;;5118813;27;20580;-58
2022/08/06 15:08:57;;;;;;;0.85;0.50;;;;;;;;;;5118262;27;20593;-58
2022/08/06 15:11:44;;;;;;;0.90;0.50;;;;;;;;;;5117400;27;20284;-58
2022/08/06 15:14:31;;;;;;;1.42;0.60;;;;;;;;;;5120236;27;20210;-58
2022/08/06 15:17:19;;;;;;;0.93;0.52;;;;;;;;;;5117449;27;20201;-58
2022/08/06 15:20:07;;;;;;;0.98;0.68;;;;;;;;;;5111929;27;20203;-59
2022/08/06 15:22:54;;;;;;;0.52;0.50;;;;;;;;;;5116662;27;20774;-57
2022/08/06 15:25:41;;;;;;;0.68;0.47;;;;;;;;;;5119090;27;20680;-57
2022/08/06 15:28:28;;;;;;;0.73;0.50;;;;;;;;;;5121257;27;20216;-57
2022/08/06 15:31:15;;;;;;;1.38;0.73;;;;;;;;;;5115178;27;20235;-57
2022/08/06 15:34:04;;;;;;;0.35;0.30;;;;;;;;;;5116064;27;20198;-58
2022/08/06 15:36:51;;;;;;;1.73;0.70;;;;;;;;;;5116296;27;20205;-57
2022/08/06 15:39:38;;;;;;;0.70;0.50;;;;;;;;;;5119489;27;20201;-57
2022/08/06 15:42:26;;;;;;;0.63;0.63;;;;;;;;;;5115290;27;20235;-58
2022/08/06 15:45:13;;;;;;;1.80;0.40;;;;;;;;;;5116842;27;20220;-58
2022/08/06 15:48:00;;;;;;;0.95;0.50;;;;;;;;;;5115122;27;20209;-57
2022/08/06 15:50:48;;;;;;;0.60;0.43;;;;;;;;;;5117185;27;20326;-58
2022/08/06 15:53:35;;;;;;;0.80;0.50;;;;;;;;;;5113785;28;20202;-58
2022/08/06 15:56:22;;;;;;;0.70;0.57;;;;;;;;;;5115332;27;20198;-58
2022/08/06 15:59:09;;;;;;;0.80;0.60;;;;;;;;;;5118188;28;20661;-58
2022/08/06 16:01:56;;;;;;;1.13;0.60;;;;;;;;;;5114230;28;20196;-58
2022/08/06 16:04:43;;;;;;;0.98;0.50;;;;;;;;;;5113715;27;20204;-58
2022/08/06 16:07:32;;;;;;;1.33;0.70;;;;;;;;;;5110164;28;20684;-57
2022/08/06 16:10:20;;;;;;;0.60;0.50;;;;;;;;;;5116674;28;20610;-58
2022/08/06 16:13:07;;;;;;;0.77;0.77;;;;;;;;;;5114637;28;20681;-57
2022/08/06 16:15:54;;;;;;;1.25;0.70;;;;;;;;;;5117836;28;20246;-58
2022/08/06 16:18:42;;;;;;;0.75;0.52;;;;;;;;;;5111687;28;20204;-58
2022/08/06 16:21:30;;;;;;;1.05;0.68;;;;;;;;;;5115983;27;20210;-58
2022/08/06 16:24:18;;;;;;;0.85;0.65;;;;;;;;;;5116396;27;20204;-58
2022/08/06 16:27:05;;;;;;;0.68;0.63;;;;;;;;;;5118114;28;20235;-57
2022/08/06 16:29:53;;;;;;;1.23;0.68;;;;;;;;;;5113897;27;20224;-58
2022/08/06 16:32:40;;;;;;;0.80;0.57;;;;;;;;;;5114958;28;20571;-57
2022/08/06 16:35:27;;;;;;;0.85;0.85;;;;;;;;;;5118580;28;20232;-58
2022/08/06 16:38:15;;;;;;;1.48;0.50;;;;;;;;;;5117760;28;20220;-57
2022/08/06 16:41:03;;;;;;;0.65;0.45;;;;;;;;;;5114696;27;20292;-58
2022/08/06 16:43:51;;;;;;;1.33;0.75;;;;;;;;;;5118100;27;20222;-58
2022/08/06 16:46:38;;;;;;;0.73;0.65;;;;;;;;;;5118037;28;20229;-57
2022/08/06 16:49:25;;;;;;;1.77;0.70;;;;;;;;;;5106772;28;20583;-57
2022/08/06 16:52:12;;;;;;;1.25;0.82;;;;;;;;;;5114250;28;20288;-58
2022/08/06 16:54:59;;;;;;;0.70;0.60;;;;;;;;;;5108453;28;20591;-58
2022/08/06 16:57:47;;;;;;;1.50;0.80;;;;;;;;;;5111563;28;20293;-59
2022/08/06 17:00:35;;;;;;;0.82;0.50;;;;;;;;;;5112043;28;20256;-58
2022/08/06 17:03:22;;;;;;;0.75;0.75;;;;;;;;;;5111484;28;20547;-57
2022/08/06 17:06:09;;;;;;;1.93;0.83;;;;;;;;;;5118296;27;20242;-58
2022/08/06 17:08:56;;;;;;;1.07;0.93;;;;;;;;;;5114840;27;20658;-58